createdAt,value
2016-07-06T00:00:07.834Z,42.55
2016-07-06T00:01:07.849Z,42.55
2016-07-06T00:02:07.895Z,42.55
2016-07-06T00:03:07.907Z,42.46
2016-07-06T00:04:07.939Z,42.36
2016-07-06T00:05:07.959Z,42.46
2016-07-06T00:06:07.983Z,42.55
2016-07-06T00:07:08.015Z,42.36
2016-07-06T00:08:08.043Z,42.26
2016-07-06T00:09:08.060Z,42.55
2016-07-06T00:10:08.089Z,42.55
2016-07-06T00:11:08.117Z,42.36
2016-07-06T00:12:08.141Z,42.65
2016-07-06T00:13:08.169Z,42.46
2016-07-06T00:14:08.191Z,42.36
2016-07-06T00:15:08.210Z,42.33
2016-07-06T00:16:08.247Z,42.46
2016-07-06T00:17:08.265Z,42.46
2016-07-06T00:18:08.298Z,42.55
2016-07-06T00:19:08.331Z,42.33
2016-07-06T00:20:08.341Z,42.33
2016-07-06T00:21:08.376Z,42.55
2016-07-06T00:22:08.399Z,42.55
2016-07-06T00:23:08.425Z,42.55
2016-07-06T00:24:08.452Z,42.53
2016-07-06T00:25:08.466Z,42.65
2016-07-06T00:26:08.489Z,42.43
2016-07-06T00:27:08.532Z,42.43
2016-07-06T00:28:08.554Z,42.05
2016-07-06T00:29:08.584Z,42.24
2016-07-06T00:30:08.598Z,42.24
2016-07-06T00:31:08.634Z,42.05
2016-07-06T00:32:08.662Z,42.24
2016-07-06T00:33:08.695Z,42.14
2016-07-06T00:34:08.697Z,42.14
2016-07-06T00:35:08.728Z,42.05
2016-07-06T00:36:08.749Z,42.14
2016-07-06T00:37:08.783Z,42.24
2016-07-06T00:38:08.815Z,42.14
2016-07-06T00:39:08.823Z,42.14
2016-07-06T00:40:08.861Z,42.33
2016-07-06T00:41:08.895Z,42.14
2016-07-06T00:42:08.915Z,42.14
2016-07-06T00:43:08.937Z,42.05
2016-07-06T00:44:08.968Z,42.05
2016-07-06T00:45:08.994Z,42.14
2016-07-06T00:46:09.021Z,42.05
2016-07-06T00:47:09.036Z,42.05
2016-07-06T00:48:09.077Z,42.14
2016-07-06T00:49:09.097Z,41.95
2016-07-06T00:50:09.121Z,42.05
2016-07-06T00:51:09.146Z,42.33
2016-07-06T00:52:09.171Z,42.33
2016-07-06T00:53:09.193Z,41.95
2016-07-06T00:54:09.215Z,42.05
2016-07-06T00:55:09.249Z,42.05
2016-07-06T00:56:09.272Z,42.24
2016-07-06T00:57:09.302Z,41.95
2016-07-06T00:58:09.326Z,42.14
2016-07-06T00:59:09.350Z,42.14
2016-07-06T01:00:09.996Z,42.14
2016-07-06T01:01:09.399Z,42.05
2016-07-06T01:02:09.421Z,41.95
2016-07-06T01:03:09.453Z,41.86
2016-07-06T01:04:09.479Z,41.86
2016-07-06T01:05:09.499Z,41.74
2016-07-06T01:06:09.527Z,41.83
2016-07-06T01:07:09.554Z,41.74
2016-07-06T01:08:09.581Z,41.64
2016-07-06T01:09:09.725Z,41.83
2016-07-06T01:10:09.629Z,41.74
2016-07-06T01:11:09.774Z,42.12
2016-07-06T01:12:09.732Z,42.03
2016-07-06T01:13:09.708Z,42.03
2016-07-06T01:14:09.726Z,42.12
2016-07-06T01:15:09.755Z,42.05
2016-07-06T01:16:09.776Z,42.05
2016-07-06T01:17:09.809Z,41.93
2016-07-06T01:18:09.828Z,42.12
2016-07-06T01:19:09.856Z,42.22
2016-07-06T01:20:09.886Z,42.22
2016-07-06T01:21:09.907Z,42.12
2016-07-06T01:22:09.932Z,42.22
2016-07-06T01:23:09.948Z,42.03
2016-07-06T01:24:10.085Z,42.03
2016-07-06T01:25:10.105Z,41.93
2016-07-06T01:26:10.113Z,42.32
2016-07-06T01:27:10.118Z,42.41
2016-07-06T01:28:10.131Z,42.32
2016-07-06T01:29:10.140Z,42.32
2016-07-06T01:30:10.134Z,42.22
2016-07-06T01:31:10.150Z,42.22
2016-07-06T01:32:10.215Z,42.12
2016-07-06T01:33:10.224Z,42.12
2016-07-06T01:34:10.234Z,42.5
2016-07-06T01:35:10.354Z,42.22
2016-07-06T01:36:10.337Z,42.41
2016-07-06T01:37:10.350Z,42.41
2016-07-06T01:38:10.359Z,42.41
2016-07-06T01:39:10.399Z,42.41
2016-07-06T01:40:10.403Z,42.41
2016-07-06T01:41:10.419Z,42.5
2016-07-06T01:42:10.441Z,42.41
2016-07-06T01:43:10.456Z,42.41
2016-07-06T01:44:10.477Z,42.41
2016-07-06T01:45:10.514Z,42.41
2016-07-06T01:46:10.538Z,42.41
2016-07-06T01:47:10.557Z,42.32
2016-07-06T01:48:10.583Z,42.6
2016-07-06T01:49:10.622Z,42.2
2016-07-06T01:50:10.637Z,42.6
2016-07-06T01:51:10.658Z,42.5
2016-07-06T01:52:10.688Z,42.41
2016-07-06T01:53:10.712Z,42.5
2016-07-06T01:54:10.736Z,42.41
2016-07-06T01:55:10.760Z,42.5
2016-07-06T01:56:10.780Z,42.5
2016-07-06T01:57:10.818Z,42.49
2016-07-06T01:58:10.834Z,42.77
2016-07-06T01:59:10.864Z,42.3
2016-07-06T02:00:10.891Z,42.41
2016-07-06T02:01:10.917Z,43.07
2016-07-06T02:02:10.943Z,43.08
2016-07-06T02:03:10.968Z,42.97
2016-07-06T02:04:10.991Z,42.89
2016-07-06T02:05:11.018Z,42.68
2016-07-06T02:06:11.041Z,42.22
2016-07-06T02:07:11.106Z,42.87
2016-07-06T02:08:11.111Z,42.68
2016-07-06T02:09:11.122Z,42.87
2016-07-06T02:10:11.125Z,42.68
2016-07-06T02:11:11.161Z,42.58
2016-07-06T02:12:11.185Z,42.68
2016-07-06T02:13:11.217Z,42.77
2016-07-06T02:14:11.232Z,42.68
2016-07-06T02:15:11.267Z,42.77
2016-07-06T02:16:11.291Z,42.77
2016-07-06T02:17:11.317Z,42.87
2016-07-06T02:18:11.341Z,42.97
2016-07-06T02:19:11.370Z,43.07
2016-07-06T02:20:11.389Z,42.87
2016-07-06T02:21:11.422Z,43.26
2016-07-06T02:22:11.462Z,43.26
2016-07-06T02:23:11.463Z,43.07
2016-07-06T02:24:11.496Z,43.16
2016-07-06T02:25:12.241Z,43.26
2016-07-06T02:26:12.250Z,43.07
2016-07-06T02:27:11.567Z,43.26
2016-07-06T02:28:11.586Z,43.35
2016-07-06T02:29:11.610Z,43.54
2016-07-06T02:30:11.641Z,43.45
2016-07-06T02:31:12.311Z,43.07
2016-07-06T02:32:11.683Z,43.74
2016-07-06T02:33:11.711Z,43.35
2016-07-06T02:34:11.731Z,43.45
2016-07-06T02:35:11.758Z,43.54
2016-07-06T02:36:11.781Z,43.45
2016-07-06T02:37:11.812Z,43.26
2016-07-06T02:38:11.832Z,43.26
2016-07-06T02:39:11.859Z,43.45
2016-07-06T02:40:11.889Z,43.45
2016-07-06T02:41:11.914Z,43.45
2016-07-06T02:42:11.936Z,43.16
2016-07-06T02:43:12.049Z,43.26
2016-07-06T02:44:12.071Z,43.16
2016-07-06T02:45:12.068Z,43.26
2016-07-06T02:46:12.248Z,43.35
2016-07-06T02:47:12.120Z,43.45
2016-07-06T02:48:12.209Z,43.64
2016-07-06T02:49:12.210Z,43.33
2016-07-06T02:50:12.214Z,43.43
2016-07-06T02:51:12.223Z,43.26
2016-07-06T02:52:12.372Z,43.74
2016-07-06T02:53:12.381Z,43.81
2016-07-06T02:54:12.384Z,43.93
2016-07-06T02:55:12.392Z,43.91
2016-07-06T02:56:12.402Z,43.91
2016-07-06T02:57:12.412Z,43.71
2016-07-06T02:58:12.421Z,43.71
2016-07-06T02:59:12.421Z,43.71
2016-07-06T03:00:12.429Z,43.71
2016-07-06T03:01:12.425Z,44
2016-07-06T03:02:12.436Z,43.62
2016-07-06T03:03:12.451Z,43.71
2016-07-06T03:04:12.481Z,43.91
2016-07-06T03:05:12.502Z,43.52
2016-07-06T03:06:12.525Z,43.71
2016-07-06T03:07:12.545Z,43.71
2016-07-06T03:08:12.565Z,44.1
2016-07-06T03:09:12.596Z,44.1
2016-07-06T03:10:12.614Z,44
2016-07-06T03:11:12.648Z,44
2016-07-06T03:12:12.664Z,44
2016-07-06T03:13:12.687Z,44.1
2016-07-06T03:14:12.713Z,44.1
2016-07-06T03:15:12.741Z,44.1
2016-07-06T03:16:12.753Z,44.1
2016-07-06T03:17:12.790Z,43.91
2016-07-06T03:18:12.820Z,44.38
2016-07-06T03:19:12.831Z,44.2
2016-07-06T03:20:12.871Z,44.2
2016-07-06T03:21:12.887Z,44.1
2016-07-06T03:22:12.922Z,44.48
2016-07-06T03:23:12.936Z,44.38
2016-07-06T03:24:12.966Z,44.29
2016-07-06T03:25:12.977Z,44.48
2016-07-06T03:26:13.011Z,44.29
2016-07-06T03:27:13.039Z,44.38
2016-07-06T03:28:13.062Z,44.48
2016-07-06T03:29:13.087Z,44.58
2016-07-06T03:30:13.114Z,44.56
2016-07-06T03:31:13.140Z,44.58
2016-07-06T03:32:13.166Z,44.68
2016-07-06T03:33:13.190Z,44.56
2016-07-06T03:34:13.209Z,44.48
2016-07-06T03:35:13.241Z,44.48
2016-07-06T03:36:13.258Z,44.68
2016-07-06T03:37:13.274Z,44.46
2016-07-06T03:38:13.306Z,44.65
2016-07-06T03:39:13.335Z,44.65
2016-07-06T03:40:13.350Z,44.75
2016-07-06T03:41:13.369Z,44.65
2016-07-06T03:42:13.412Z,44.94
2016-07-06T03:43:13.478Z,44.65
2016-07-06T03:44:13.450Z,44.84
2016-07-06T03:45:13.475Z,44.84
2016-07-06T03:46:13.503Z,44.94
2016-07-06T03:47:13.520Z,44.75
2016-07-06T03:48:13.549Z,44.94
2016-07-06T03:49:13.566Z,44.75
2016-07-06T03:50:13.595Z,44.46
2016-07-06T03:51:13.610Z,44.65
2016-07-06T03:52:13.646Z,44.75
2016-07-06T03:53:13.667Z,44.75
2016-07-06T03:54:13.697Z,44.75
2016-07-06T03:55:13.726Z,44.56
2016-07-06T03:56:13.749Z,44.65
2016-07-06T03:57:13.784Z,44.65
2016-07-06T03:58:14.416Z,44.56
2016-07-06T03:59:14.424Z,44.56
2016-07-06T04:00:13.835Z,44.65
2016-07-06T04:01:13.866Z,44.65
2016-07-06T04:02:13.878Z,44.75
2016-07-06T04:03:13.908Z,44.94
2016-07-06T04:04:13.943Z,44.84
2016-07-06T04:05:13.966Z,44.75
2016-07-06T04:06:13.992Z,44.84
2016-07-06T04:07:14.006Z,44.82
2016-07-06T04:08:14.038Z,44.94
2016-07-06T04:09:14.057Z,45.01
2016-07-06T04:10:14.084Z,44.82
2016-07-06T04:11:14.142Z,44.92
2016-07-06T04:12:14.127Z,45.01
2016-07-06T04:13:14.160Z,44.92
2016-07-06T04:14:14.179Z,45.11
2016-07-06T04:15:14.292Z,45.11
2016-07-06T04:16:14.311Z,45.11
2016-07-06T04:17:14.252Z,45.21
2016-07-06T04:18:14.279Z,45.21
2016-07-06T04:19:14.301Z,45.11
2016-07-06T04:20:14.315Z,45.3
2016-07-06T04:21:14.337Z,45.3
2016-07-06T04:22:14.371Z,45.21
2016-07-06T04:23:14.402Z,45.3
2016-07-06T04:24:14.512Z,45.11
2016-07-06T04:25:14.442Z,45.4
2016-07-06T04:26:14.470Z,45.32
2016-07-06T04:27:14.487Z,45.21
2016-07-06T04:28:14.726Z,45.23
2016-07-06T04:29:14.531Z,45.4
2016-07-06T04:30:14.553Z,45.3
2016-07-06T04:31:14.589Z,45.4
2016-07-06T04:32:14.621Z,45.5
2016-07-06T04:33:14.631Z,45.23
2016-07-06T04:34:14.748Z,45.3
2016-07-06T04:35:14.686Z,45.42
2016-07-06T04:36:14.702Z,45.42
2016-07-06T04:37:14.726Z,45.42
2016-07-06T04:38:14.754Z,45.32
2016-07-06T04:39:14.774Z,45.32
2016-07-06T04:40:14.795Z,45.42
2016-07-06T04:41:14.837Z,45.4
2016-07-06T04:42:15.238Z,45.23
2016-07-06T04:43:14.878Z,45.32
2016-07-06T04:44:15.109Z,45.32
2016-07-06T04:45:14.917Z,45.23
2016-07-06T04:46:14.942Z,45.32
2016-07-06T04:47:14.970Z,45.32
2016-07-06T04:48:14.991Z,45.23
2016-07-06T04:49:15.142Z,45.23
2016-07-06T04:50:15.036Z,45.23
2016-07-06T04:51:15.061Z,45.14
2016-07-06T04:52:15.085Z,45.23
2016-07-06T04:53:15.107Z,45.32
2016-07-06T04:54:15.137Z,45.14
2016-07-06T04:55:15.164Z,45.32
2016-07-06T04:56:15.189Z,45.23
2016-07-06T04:57:15.208Z,45.14
2016-07-06T04:58:15.239Z,44.75
2016-07-06T04:59:15.251Z,44.84
2016-07-06T05:00:15.358Z,45.04
2016-07-06T05:01:15.308Z,45.04
2016-07-06T05:02:15.324Z,45.04
2016-07-06T05:03:15.346Z,44.75
2016-07-06T05:04:15.374Z,44.65
2016-07-06T05:05:15.393Z,44.84
2016-07-06T05:06:15.428Z,44.75
2016-07-06T05:07:15.451Z,44.46
2016-07-06T05:08:15.468Z,44.46
2016-07-06T05:09:15.493Z,44.65
2016-07-06T05:10:15.612Z,44.56
2016-07-06T05:11:15.550Z,44.65
2016-07-06T05:12:15.572Z,44.65
2016-07-06T05:13:15.590Z,44.46
2016-07-06T05:14:15.617Z,44.46
2016-07-06T05:15:15.638Z,44.37
2016-07-06T05:16:15.658Z,44.27
2016-07-06T05:17:15.694Z,44.46
2016-07-06T05:18:15.716Z,44.37
2016-07-06T05:19:15.736Z,44.27
2016-07-06T05:20:15.761Z,44.37
2016-07-06T05:21:15.876Z,44.37
2016-07-06T05:22:15.811Z,44.17
2016-07-06T05:23:15.842Z,44.37
2016-07-06T05:24:15.864Z,44.17
2016-07-06T05:25:15.891Z,44.37
2016-07-06T05:26:15.944Z,44.37
2016-07-06T05:27:15.931Z,44.37
2016-07-06T05:28:15.954Z,44.37
2016-07-06T05:29:15.984Z,44.08
2016-07-06T05:30:16.003Z,44.37
2016-07-06T05:31:16.203Z,43.7
2016-07-06T05:32:16.144Z,44.08
2016-07-06T05:33:16.073Z,43.98
2016-07-06T05:34:16.102Z,43.88
2016-07-06T05:35:16.125Z,44.17
2016-07-06T05:36:16.143Z,43.88
2016-07-06T05:37:16.173Z,43.98
2016-07-06T05:38:16.200Z,44.08
2016-07-06T05:39:16.213Z,44.08
2016-07-06T05:40:16.339Z,44.08
2016-07-06T05:41:16.263Z,44.08
2016-07-06T05:42:16.286Z,43.79
2016-07-06T05:43:16.380Z,44.1
2016-07-06T05:44:16.345Z,43.6
2016-07-06T05:45:16.361Z,43.81
2016-07-06T05:46:16.398Z,43.88
2016-07-06T05:47:16.424Z,43.62
2016-07-06T05:48:16.492Z,43.62
2016-07-06T05:49:16.460Z,43.71
2016-07-06T05:50:16.499Z,43.81
2016-07-06T05:51:16.515Z,43.62
2016-07-06T05:52:16.532Z,43.71
2016-07-06T05:53:16.653Z,43.81
2016-07-06T05:54:16.584Z,43.4
2016-07-06T05:55:16.620Z,43.71
2016-07-06T05:56:16.637Z,43.71
2016-07-06T05:57:16.649Z,43.62
2016-07-06T05:58:16.676Z,43.81
2016-07-06T05:59:17.301Z,43.81
2016-07-06T06:00:16.723Z,43.7
2016-07-06T06:01:16.833Z,43.71
2016-07-06T06:02:16.865Z,43.91
2016-07-06T06:03:16.799Z,43.52
2016-07-06T06:04:16.818Z,43.81
2016-07-06T06:05:16.848Z,43.91
2016-07-06T06:06:16.871Z,43.91
2016-07-06T06:07:16.892Z,43.7
2016-07-06T06:08:16.919Z,43.88
2016-07-06T06:09:16.948Z,43.7
2016-07-06T06:10:16.965Z,43.98
2016-07-06T06:11:17.000Z,43.88
2016-07-06T06:12:17.006Z,43.7
2016-07-06T06:13:17.652Z,43.81
2016-07-06T06:14:17.063Z,43.71
2016-07-06T06:15:17.084Z,43.7
2016-07-06T06:16:17.113Z,43.62
2016-07-06T06:17:17.142Z,43.79
2016-07-06T06:18:17.157Z,43.62
2016-07-06T06:19:17.229Z,43.52
2016-07-06T06:20:17.205Z,44.1
2016-07-06T06:21:17.237Z,43.62
2016-07-06T06:22:17.248Z,43.71
2016-07-06T06:23:17.278Z,43.81
2016-07-06T06:24:17.300Z,43.43
2016-07-06T06:25:17.331Z,43.33
2016-07-06T06:26:17.350Z,43.7
2016-07-06T06:27:17.374Z,43.33
2016-07-06T06:28:17.397Z,43.5
2016-07-06T06:29:17.421Z,43.62
2016-07-06T06:30:18.058Z,43.43
2016-07-06T06:31:17.467Z,43.43
2016-07-06T06:32:17.490Z,43.52
2016-07-06T06:33:17.513Z,43.33
2016-07-06T06:34:17.542Z,43.52
2016-07-06T06:35:17.553Z,43.14
2016-07-06T06:36:17.590Z,43.04
2016-07-06T06:37:18.229Z,43.14
2016-07-06T06:38:17.637Z,43.33
2016-07-06T06:39:17.663Z,43.43
2016-07-06T06:40:17.688Z,43.23
2016-07-06T06:41:17.711Z,43.23
2016-07-06T06:42:17.729Z,43.14
2016-07-06T06:43:17.812Z,43.23
2016-07-06T06:44:17.780Z,42.94
2016-07-06T06:45:17.809Z,42.85
2016-07-06T06:46:17.833Z,42.94
2016-07-06T06:47:17.854Z,42.68
2016-07-06T06:48:18.486Z,42.66
2016-07-06T06:49:17.908Z,42.49
2016-07-06T06:50:17.918Z,42.66
2016-07-06T06:51:17.950Z,42.66
2016-07-06T06:52:17.977Z,42.66
2016-07-06T06:53:18.613Z,42.58
2016-07-06T06:54:18.027Z,42.77
2016-07-06T06:55:18.048Z,42.66
2016-07-06T06:56:18.075Z,42.68
2016-07-06T06:57:18.085Z,42.87
2016-07-06T06:58:18.111Z,42.68
2016-07-06T06:59:18.135Z,42.97
2016-07-06T07:00:18.175Z,42.87
2016-07-06T07:01:18.189Z,42.58
2016-07-06T07:02:18.206Z,42.39
2016-07-06T07:03:18.241Z,42.58
2016-07-06T07:04:18.269Z,42.39
2016-07-06T07:05:18.295Z,42.39
2016-07-06T07:06:18.313Z,42.49
2016-07-06T07:07:18.339Z,42.2
2016-07-06T07:08:18.371Z,42.2
2016-07-06T07:09:18.387Z,42.1
2016-07-06T07:10:18.415Z,41.91
2016-07-06T07:11:18.425Z,42.39
2016-07-06T07:12:18.457Z,42.1
2016-07-06T07:13:18.488Z,42.2
2016-07-06T07:14:18.505Z,42.1
2016-07-06T07:15:18.534Z,42
2016-07-06T07:16:18.560Z,41.62
2016-07-06T07:17:18.576Z,41.82
2016-07-06T07:18:18.609Z,41.72
2016-07-06T07:19:18.639Z,41.05
2016-07-06T07:20:18.659Z,40.95
2016-07-06T07:21:18.686Z,41.14
2016-07-06T07:22:18.709Z,41.14
2016-07-06T07:23:18.735Z,41.05
2016-07-06T07:24:18.754Z,40.97
2016-07-06T07:25:18.791Z,40.97
2016-07-06T07:26:18.801Z,40.95
2016-07-06T07:27:18.840Z,40.78
2016-07-06T07:28:18.853Z,40.97
2016-07-06T07:29:18.887Z,40.78
2016-07-06T07:30:18.906Z,40.97
2016-07-06T07:31:18.940Z,40.97
2016-07-06T07:32:18.958Z,41.06
2016-07-06T07:33:18.980Z,41.16
2016-07-06T07:34:18.998Z,41.45
2016-07-06T07:35:19.022Z,42.12
2016-07-06T07:36:19.054Z,42.5
2016-07-06T07:37:19.066Z,43.07
2016-07-06T07:38:19.094Z,42.87
2016-07-06T07:39:19.114Z,43.47
2016-07-06T07:40:19.148Z,42.99
2016-07-06T07:41:19.174Z,43.57
2016-07-06T07:42:19.198Z,43.64
2016-07-06T07:43:19.274Z,43.64
2016-07-06T07:44:19.250Z,43.64
2016-07-06T07:45:19.270Z,43.64
2016-07-06T07:46:19.283Z,43.66
2016-07-06T07:47:19.319Z,43.93
2016-07-06T07:48:19.353Z,43.76
2016-07-06T07:49:19.371Z,43.66
2016-07-06T07:50:19.392Z,43.95
2016-07-06T07:51:19.419Z,44.14
2016-07-06T07:52:19.429Z,44.14
2016-07-06T07:53:19.467Z,43.95
2016-07-06T07:54:19.493Z,44.34
2016-07-06T07:55:19.516Z,44.43
2016-07-06T07:56:19.545Z,44.53
2016-07-06T07:57:19.569Z,44.53
2016-07-06T07:58:19.587Z,44.43
2016-07-06T07:59:19.610Z,44.53
2016-07-06T08:00:19.634Z,44.34
2016-07-06T08:01:19.662Z,44.24
2016-07-06T08:02:19.685Z,44.43
2016-07-06T08:03:19.711Z,44.24
2016-07-06T08:04:19.737Z,43.95
2016-07-06T08:05:19.767Z,44.14
2016-07-06T08:06:19.787Z,43.74
2016-07-06T08:07:19.814Z,43.54
2016-07-06T08:08:19.836Z,43.45
2016-07-06T08:09:19.871Z,43.66
2016-07-06T08:10:19.884Z,43.84
2016-07-06T08:11:19.907Z,43.28
2016-07-06T08:12:19.949Z,43.18
2016-07-06T08:13:19.951Z,43.18
2016-07-06T08:14:19.981Z,43.54
2016-07-06T08:15:20.004Z,43.37
2016-07-06T08:16:20.026Z,43.37
2016-07-06T08:17:20.048Z,43.18
2016-07-06T08:18:20.074Z,42.89
2016-07-06T08:19:20.099Z,42.7
2016-07-06T08:20:20.125Z,42.7
2016-07-06T08:21:20.767Z,43.08
2016-07-06T08:22:20.182Z,42.22
2016-07-06T08:23:20.197Z,42.22
2016-07-06T08:24:20.223Z,42.12
2016-07-06T08:25:20.250Z,41.93
2016-07-06T08:26:20.278Z,41.74
2016-07-06T08:27:20.304Z,40.78
2016-07-06T08:28:20.325Z,41.06
2016-07-06T08:29:20.357Z,41.26
2016-07-06T08:30:20.627Z,41.08
2016-07-06T08:31:20.409Z,40.7
2016-07-06T08:32:20.433Z,40.39
2016-07-06T08:33:20.443Z,40.03
2016-07-06T08:34:20.484Z,39.83
2016-07-06T08:35:20.506Z,39.74
2016-07-06T08:36:20.519Z,39.54
2016-07-06T08:37:20.552Z,39.26
2016-07-06T08:38:20.578Z,39.16
2016-07-06T08:39:20.595Z,38.97
2016-07-06T08:40:20.616Z,38.87
2016-07-06T08:41:20.642Z,38.68
2016-07-06T08:42:20.675Z,38.78
2016-07-06T08:43:20.742Z,38.78
2016-07-06T08:44:20.721Z,38.59
2016-07-06T08:45:20.752Z,38.79
2016-07-06T08:46:20.783Z,38.68
2016-07-06T08:47:20.795Z,38.49
2016-07-06T08:48:20.827Z,38.31
2016-07-06T08:49:20.852Z,38.2
2016-07-06T08:50:20.865Z,38.41
2016-07-06T08:51:20.903Z,37.34
2016-07-06T08:52:20.914Z,37.52
2016-07-06T08:53:20.944Z,37.74
2016-07-06T08:54:21.591Z,37.91
2016-07-06T08:55:20.998Z,37.81
2016-07-06T08:56:21.033Z,37.72
2016-07-06T08:57:21.049Z,37.54
2016-07-06T08:58:21.076Z,37.62
2016-07-06T08:59:21.102Z,37.54
2016-07-06T09:00:21.129Z,37.04
2016-07-06T09:01:21.164Z,37.16
2016-07-06T09:02:21.178Z,37.26
2016-07-06T09:03:21.203Z,37.35
2016-07-06T09:04:21.229Z,37.06
2016-07-06T09:05:21.250Z,37.16
2016-07-06T09:06:21.274Z,37.06
2016-07-06T09:07:21.304Z,36.49
2016-07-06T09:08:21.333Z,36.87
2016-07-06T09:09:21.352Z,36.77
2016-07-06T09:10:21.385Z,36.99
2016-07-06T09:11:21.403Z,36.51
2016-07-06T09:12:21.425Z,36.41
2016-07-06T09:13:21.451Z,36.41
2016-07-06T09:14:21.475Z,36.11
2016-07-06T09:15:21.501Z,35.54
2016-07-06T09:16:21.527Z,35.56
2016-07-06T09:17:21.554Z,35.54
2016-07-06T09:18:22.190Z,35.65
2016-07-06T09:19:21.608Z,35.65
2016-07-06T09:20:21.628Z,35.65
2016-07-06T09:21:21.653Z,35.56
2016-07-06T09:22:21.685Z,35.65
2016-07-06T09:23:21.698Z,35.65
2016-07-06T09:24:21.731Z,35.08
2016-07-06T09:25:21.753Z,35.94
2016-07-06T09:26:21.780Z,35.36
2016-07-06T09:27:21.817Z,35.46
2016-07-06T09:28:22.452Z,35.17
2016-07-06T09:29:21.856Z,34.88
2016-07-06T09:30:21.884Z,35.27
2016-07-06T09:31:21.906Z,35.36
2016-07-06T09:32:21.929Z,35.36
2016-07-06T09:33:21.961Z,35.67
2016-07-06T09:34:21.990Z,35.38
2016-07-06T09:35:22.005Z,35.19
2016-07-06T09:36:22.044Z,35
2016-07-06T09:37:22.061Z,34.61
2016-07-06T09:38:22.073Z,34.22
2016-07-06T09:39:22.107Z,34.03
2016-07-06T09:40:22.138Z,34.24
2016-07-06T09:41:22.160Z,34.52
2016-07-06T09:42:22.193Z,33.76
2016-07-06T09:43:22.210Z,33.94
2016-07-06T09:44:22.239Z,33.95
2016-07-06T09:45:22.270Z,33.76
2016-07-06T09:46:22.284Z,33.86
2016-07-06T09:47:22.317Z,33.47
2016-07-06T09:48:22.348Z,33.09
2016-07-06T09:49:22.370Z,33.28
2016-07-06T09:50:22.386Z,33.09
2016-07-06T09:51:22.416Z,33.18
2016-07-06T09:52:22.441Z,32.6
2016-07-06T09:53:22.472Z,32.79
2016-07-06T09:54:22.497Z,32.79
2016-07-06T09:55:22.520Z,32.31
2016-07-06T09:56:22.543Z,32.7
2016-07-06T09:57:22.578Z,32.52
2016-07-06T09:58:22.597Z,32.31
2016-07-06T09:59:22.620Z,32.12
2016-07-06T10:00:23.261Z,32.23
2016-07-06T10:01:22.671Z,32.43
2016-07-06T10:02:22.705Z,32.33
2016-07-06T10:03:22.727Z,32.33
2016-07-06T10:04:22.753Z,31.85
2016-07-06T10:05:22.775Z,31.85
2016-07-06T10:06:22.805Z,31.65
2016-07-06T10:07:22.836Z,31.65
2016-07-06T10:08:22.859Z,31.75
2016-07-06T10:09:22.897Z,31.85
2016-07-06T10:10:22.911Z,31.65
2016-07-06T10:11:22.932Z,31.75
2016-07-06T10:12:22.955Z,32.04
2016-07-06T10:13:22.994Z,31.85
2016-07-06T10:14:23.017Z,32.04
2016-07-06T10:15:23.047Z,31.75
2016-07-06T10:16:23.078Z,31.46
2016-07-06T10:17:23.093Z,31.17
2016-07-06T10:18:23.125Z,31.37
2016-07-06T10:19:23.182Z,31.37
2016-07-06T10:20:23.175Z,30.59
2016-07-06T10:21:23.202Z,31.07
2016-07-06T10:22:23.227Z,31.07
2016-07-06T10:23:23.257Z,30.88
2016-07-06T10:24:23.278Z,30.79
2016-07-06T10:25:23.308Z,30.69
2016-07-06T10:26:23.335Z,30.69
2016-07-06T10:27:23.965Z,30.3
2016-07-06T10:28:23.383Z,30.49
2016-07-06T10:29:23.413Z,30.3
2016-07-06T10:30:23.438Z,29.82
2016-07-06T10:31:23.462Z,29.63
2016-07-06T10:32:23.494Z,29.53
2016-07-06T10:33:23.518Z,29.63
2016-07-06T10:34:24.160Z,29.43
2016-07-06T10:35:23.572Z,29.53
2016-07-06T10:36:23.607Z,29.72
2016-07-06T10:37:23.625Z,29.34
2016-07-06T10:38:23.652Z,29.72
2016-07-06T10:39:23.681Z,30.21
2016-07-06T10:40:23.709Z,30.4
2016-07-06T10:41:23.734Z,30.4
2016-07-06T10:42:23.760Z,30.32
2016-07-06T10:43:23.785Z,30.22
2016-07-06T10:44:23.813Z,29.83
2016-07-06T10:45:23.837Z,29.64
2016-07-06T10:46:23.862Z,29.45
2016-07-06T10:47:23.900Z,29.27
2016-07-06T10:48:23.923Z,28.98
2016-07-06T10:49:24.032Z,29.08
2016-07-06T10:50:23.972Z,29.17
2016-07-06T10:51:24.004Z,28.69
2016-07-06T10:52:24.034Z,28.88
2016-07-06T10:53:24.050Z,28.22
2016-07-06T10:54:24.082Z,28.22
2016-07-06T10:55:24.106Z,28.61
2016-07-06T10:56:24.136Z,28.88
2016-07-06T10:57:24.161Z,28.41
2016-07-06T10:58:24.278Z,28.03
2016-07-06T10:59:24.212Z,27.64
2016-07-06T11:00:24.238Z,27.83
2016-07-06T11:01:24.266Z,27.55
2016-07-06T11:02:24.291Z,27.45
2016-07-06T11:03:24.324Z,27.66
2016-07-06T11:04:24.357Z,27.26
2016-07-06T11:05:24.382Z,27.08
2016-07-06T11:06:24.404Z,27.26
2016-07-06T11:07:24.431Z,27.08
2016-07-06T11:08:25.067Z,27.17
2016-07-06T11:09:24.485Z,26.98
2016-07-06T11:10:24.516Z,27.17
2016-07-06T11:11:24.537Z,26.88
2016-07-06T11:12:24.567Z,26.98
2016-07-06T11:13:24.593Z,27.08
2016-07-06T11:14:24.623Z,26.98
2016-07-06T11:15:24.644Z,26.5
2016-07-06T11:16:24.675Z,26.68
2016-07-06T11:17:24.700Z,26.2
2016-07-06T11:18:24.728Z,26.68
2016-07-06T11:19:24.757Z,26.09
2016-07-06T11:20:24.785Z,25.81
2016-07-06T11:21:24.813Z,25.81
2016-07-06T11:22:24.850Z,25.61
2016-07-06T11:23:24.871Z,25.43
2016-07-06T11:24:24.897Z,25.81
2016-07-06T11:25:24.927Z,25.72
2016-07-06T11:26:24.950Z,26.1
2016-07-06T11:27:24.978Z,26.5
2016-07-06T11:28:25.005Z,26.5
2016-07-06T11:29:25.031Z,26.78
2016-07-06T11:30:25.059Z,26.88
2016-07-06T11:31:25.087Z,26.78
2016-07-06T11:32:25.101Z,26.5
2016-07-06T11:33:25.137Z,26.1
2016-07-06T11:34:25.161Z,26.31
2016-07-06T11:35:25.185Z,26.21
2016-07-06T11:36:25.222Z,26.5
2016-07-06T11:37:25.249Z,26.1
2016-07-06T11:38:25.266Z,25.82
2016-07-06T11:39:25.299Z,25.43
2016-07-06T11:40:25.333Z,25.82
2016-07-06T11:41:25.350Z,25.72
2016-07-06T11:42:25.388Z,25.43
2016-07-06T11:43:25.417Z,25.43
2016-07-06T11:44:25.442Z,24.85
2016-07-06T11:45:25.469Z,25.14
2016-07-06T11:46:25.488Z,25.15
2016-07-06T11:47:25.513Z,25.04
2016-07-06T11:48:25.549Z,25.24
2016-07-06T11:49:25.571Z,25.14
2016-07-06T11:50:25.597Z,25.04
2016-07-06T11:51:25.624Z,24.95
2016-07-06T11:52:25.655Z,24.95
2016-07-06T11:53:25.682Z,24.96
2016-07-06T11:54:25.713Z,25.15
2016-07-06T11:55:25.735Z,25.15
2016-07-06T11:56:25.764Z,24.96
2016-07-06T11:57:26.409Z,24.96
2016-07-06T11:58:25.819Z,25.36
2016-07-06T11:59:26.460Z,24.87
2016-07-06T12:00:25.877Z,24.58
2016-07-06T12:01:25.907Z,24.68
2016-07-06T12:02:25.933Z,24.3
2016-07-06T12:03:25.958Z,24.11
2016-07-06T12:04:25.991Z,24.11
2016-07-06T12:05:26.024Z,23.63
2016-07-06T12:06:26.060Z,23.54
2016-07-06T12:07:26.070Z,23.44
2016-07-06T12:08:26.112Z,22.88
2016-07-06T12:09:26.135Z,22.97
2016-07-06T12:10:26.159Z,22.78
2016-07-06T12:11:26.190Z,23.26
2016-07-06T12:12:26.226Z,22.58
2016-07-06T12:13:26.249Z,23.07
2016-07-06T12:14:26.288Z,22.97
2016-07-06T12:15:26.303Z,22.58
2016-07-06T12:16:26.338Z,23.07
2016-07-06T12:17:26.370Z,22.97
2016-07-06T12:18:26.384Z,22.86
2016-07-06T12:19:26.421Z,23.16
2016-07-06T12:20:26.440Z,22.88
2016-07-06T12:21:26.474Z,23.16
2016-07-06T12:22:26.512Z,22.96
2016-07-06T12:23:26.542Z,23.06
2016-07-06T12:24:26.563Z,22.3
2016-07-06T12:25:26.596Z,22.49
2016-07-06T12:26:26.618Z,22.1
2016-07-06T12:27:27.261Z,22.1
2016-07-06T12:28:26.678Z,22.1
2016-07-06T12:29:26.704Z,22.39
2016-07-06T12:30:26.742Z,21.81
2016-07-06T12:31:26.759Z,22
2016-07-06T12:32:26.800Z,21.42
2016-07-06T12:33:26.826Z,21.42
2016-07-06T12:34:26.856Z,21.62
2016-07-06T12:35:26.885Z,21.43
2016-07-06T12:36:26.903Z,21.53
2016-07-06T12:37:26.966Z,21.54
2016-07-06T12:38:27.004Z,21.15
2016-07-06T12:39:27.029Z,21.34
2016-07-06T12:40:27.078Z,20.97
2016-07-06T12:41:27.095Z,20.97
2016-07-06T12:42:27.122Z,21.16
2016-07-06T12:43:27.203Z,20.59
2016-07-06T12:44:27.190Z,20.78
2016-07-06T12:45:27.203Z,20.49
2016-07-06T12:46:27.247Z,20.68
2016-07-06T12:47:27.265Z,19.91
2016-07-06T12:48:27.302Z,20.4
2016-07-06T12:49:27.325Z,20.21
2016-07-06T12:50:27.350Z,19.82
2016-07-06T12:51:27.380Z,19.73
2016-07-06T12:52:27.403Z,19.64
2016-07-06T12:53:27.431Z,19.54
2016-07-06T12:54:27.455Z,19.54
2016-07-06T12:55:27.501Z,20.03